Cape Express — HO5337 — position and weather

sailwx.info

Track history (hours):
 
Tides and Currents Weather Stations Pressure Air Temp Water Temp Dewpoint Dewpoint Depression Visibility Wind Speed Wind Dir Waves Ship Positions

Cape Express

Last reported at 2017-Apr-25 18:24 UTC. Time now 2017-Apr-26 13:44 UTC.
Position N 26°05' W 079°35'.

Length 29 m; draft 2.1 m.

Type: Cargo ship. MMSI: 370269000.

Date/timePositionNaut miles runAvg speedWind from/ knotsBaromVisibWave heightAir tempDewpointWater temp
2017-Apr-25 18:24N 26°05' W 079°35'4 9.8
2017-Apr-25 18:00N 26°05' W 079°39'5 9.7
2017-Apr-25 17:30N 26°05' W 079°45'5 9.6
2017-Apr-25 17:00N 26°05' W 079°50'5 9.3
2017-Apr-25 16:30N 26°05' W 079°55'5 9.3
2017-Apr-25 16:00N 26°05' W 080°00'5 9.6
2017-Apr-25 15:30N 26°06' W 080°06'3 5.7
2017-Apr-25 15:00N 26°04' W 080°08'0 0.2
2017-Apr-25 14:30N 26°04' W 080°08'0 0.0
2017-Apr-25 13:30N 26°04' W 080°08'0 0.0
2017-Apr-25 13:00N 26°04' W 080°08'0 0.0
2017-Apr-25 12:30N 26°04' W 080°08'0 0.0
2017-Apr-25 12:00N 26°04' W 080°08'0 0.0
2017-Apr-25 11:30N 26°04' W 080°08'0 0.0
2017-Apr-25 11:00N 26°04' W 080°08'0 0.0
2017-Apr-25 10:30N 26°04' W 080°08'0 0.0
2017-Apr-25 10:00N 26°04' W 080°08'0 0.1
2017-Apr-25 09:30N 26°04' W 080°08'0 0.0
2017-Apr-25 09:00N 26°04' W 080°08'0 0.0
2017-Apr-25 08:30N 26°04' W 080°08'0 0.0
2017-Apr-25 08:00N 26°04' W 080°08'0 0.0
2017-Apr-25 07:30N 26°04' W 080°08'0 0.0
2017-Apr-25 07:00N 26°04' W 080°08'0 0.0
2017-Apr-25 06:30N 26°04' W 080°08'0 0.0
2017-Apr-25 06:00N 26°04' W 080°08'0 0.0
2017-Apr-25 05:30N 26°04' W 080°08'0 0.1
2017-Apr-25 05:00N 26°04' W 080°08'0 0.1
2017-Apr-25 04:30N 26°04' W 080°08'0 0.0
2017-Apr-25 04:00N 26°04' W 080°08'0 0.0
2017-Apr-25 03:30N 26°04' W 080°08'0 0.0
2017-Apr-25 03:00N 26°04' W 080°08'0 0.0
2017-Apr-25 02:30N 26°04' W 080°08'0 0.0
2017-Apr-25 02:00N 26°04' W 080°08'0 0.0
2017-Apr-25 01:30N 26°04' W 080°08'0 0.0
2017-Apr-25 01:00N 26°04' W 080°08'0 0.0
2017-Apr-25 00:30N 26°04' W 080°08'0 0.0
2017-Apr-25 00:00N 26°04' W 080°08'0 0.0
2017-Apr-24 23:30N 26°04' W 080°08'0 0.0
2017-Apr-24 23:00N 26°04' W 080°08'0 0.0
2017-Apr-24 22:30N 26°04' W 080°08'0 0.0
2017-Apr-24 22:00N 26°04' W 080°08'0 0.0
2017-Apr-24 21:30N 26°04' W 080°08'0 0.0
2017-Apr-24 21:00N 26°04' W 080°08'0 0.0
2017-Apr-24 20:30N 26°04' W 080°08'0 0.0
2017-Apr-24 20:00N 26°04' W 080°08'0 0.0
2017-Apr-24 19:30N 26°04' W 080°08'0 0.0
2017-Apr-24 19:00N 26°04' W 080°08'0 0.0
2017-Apr-24 18:30N 26°04' W 080°08'0 0.0
2017-Apr-24 18:00N 26°04' W 080°08'0 0.0
2017-Apr-24 17:30N 26°04' W 080°08'0 0.0
2017-Apr-24 17:00N 26°04' W 080°08'0 0.0
2017-Apr-24 16:30N 26°04' W 080°08'0 0.0
2017-Apr-24 16:00N 26°04' W 080°08'0 0.0
2017-Apr-24 15:30N 26°04' W 080°08'0 0.0
2017-Apr-24 15:00N 26°04' W 080°08'0 0.0
2017-Apr-24 14:31N 26°04' W 080°08'0 0.0
2017-Apr-24 13:30N 26°04' W 080°08'0 0.0
2017-Apr-24 13:00N 26°04' W 080°08'0 0.0
2017-Apr-24 12:30N 26°04' W 080°08'0 0.0
2017-Apr-24 12:00N 26°04' W 080°08'0 0.0
2017-Apr-24 11:30N 26°04' W 080°08'0 0.0
2017-Apr-24 11:00N 26°04' W 080°08'0 0.0
2017-Apr-24 10:30N 26°04' W 080°08'0 0.0
2017-Apr-24 10:00N 26°04' W 080°08'0 0.0
2017-Apr-24 09:30N 26°04' W 080°08'0 0.0
2017-Apr-24 09:00N 26°04' W 080°08'0 0.0
2017-Apr-24 08:30N 26°04' W 080°08'0 0.0
2017-Apr-24 08:00N 26°04' W 080°08'0 0.0
2017-Apr-24 07:30N 26°04' W 080°08'0 0.0
2017-Apr-24 07:00N 26°04' W 080°08'0 0.0
2017-Apr-24 06:30N 26°04' W 080°08'0 0.0
2017-Apr-24 06:00N 26°04' W 080°08'0 0.0
2017-Apr-24 05:30N 26°04' W 080°08'0 0.0
2017-Apr-24 05:00N 26°04' W 080°08'0 0.0
2017-Apr-23 22:27N 26°04' W 080°08'0 0.0
2017-Apr-23 20:58N 26°04' W 080°08'0 0.0
2017-Apr-23 18:09N 26°04' W 080°08'0 0.0
2017-Apr-23 17:39N 26°04' W 080°08'0 0.0
2017-Apr-23 17:28N 26°04' W 080°08'0 0.0
2017-Apr-23 16:51N 26°04' W 080°08'0 0.0
2017-Apr-23 16:28N 26°04' W 080°08'0 0.0
2017-Apr-23 16:00N 26°04' W 080°08'0 0.0
2017-Apr-23 15:09N 26°04' W 080°08'0 0.0
2017-Apr-23 14:42N 26°04' W 080°08'0 0.4
2017-Apr-23 14:30N 26°04' W 080°08'0 0.0
2017-Apr-23 13:30N 26°04' W 080°08'0 0.0
2017-Apr-23 13:00N 26°04' W 080°08'0 0.0
2017-Apr-23 12:30N 26°04' W 080°08'0 0.0
2017-Apr-23 12:01N 26°04' W 080°08'0 0.0
2017-Apr-23 11:30N 26°04' W 080°08'0 0.0
2017-Apr-23 11:00N 26°04' W 080°08'0 0.1
2017-Apr-23 10:30N 26°04' W 080°08'2 4.5
2017-Apr-23 10:00N 26°06' W 080°07'4 8.8
2017-Apr-23 09:30N 26°04' W 080°02'3 6.8
2017-Apr-23 09:00N 26°04' W 079°58'2 3.0
2017-Apr-23 08:30N 26°05' W 079°57'3 5.8
2017-Apr-23 08:00N 26°03' W 079°55'4 7.2
2017-Apr-23 07:30N 26°02' W 079°51'5 9.9
2017-Apr-23 07:00N 26°00' W 079°46'510.1
2017-Apr-23 06:28N 25°59' W 079°40'  
2017-Apr-19 19:03N 25°58' W 079°34'0 7.4
2017-Apr-19 19:00N 25°58' W 079°34'4 7.1
2017-Apr-19 18:30N 25°59' W 079°38'4 7.3
2017-Apr-19 18:00N 25°60' W 079°42'4 7.2
2017-Apr-19 17:30N 26°01' W 079°45'4 7.1
2017-Apr-19 17:00N 26°02' W 079°49'4 7.0
2017-Apr-19 16:30N 26°02' W 079°53'3 6.9
2017-Apr-19 16:00N 26°03' W 079°57'4 8.2
2017-Apr-19 15:30N 26°05' W 080°01'4 9.0
2017-Apr-19 15:00N 26°06' W 080°06'3 5.2
2017-Apr-19 14:30N 26°04' W 080°08'0 0.1
2017-Apr-19 13:30N 26°04' W 080°08'0 0.0
2017-Apr-19 13:00N 26°04' W 080°08'0 0.0
2017-Apr-19 12:30N 26°04' W 080°08'0 0.0
2017-Apr-19 12:00N 26°04' W 080°08'0 0.0
2017-Apr-19 11:30N 26°04' W 080°08'0 0.0
2017-Apr-19 11:00N 26°04' W 080°08'0 0.0
2017-Apr-19 10:30N 26°04' W 080°08'0 0.0
2017-Apr-19 10:00N 26°04' W 080°08'0 0.1
2017-Apr-19 09:30N 26°04' W 080°08'2 4.4
2017-Apr-19 09:00N 26°06' W 080°07'4 8.9
2017-Apr-19 08:30N 26°06' W 080°02'4 7.6
2017-Apr-19 08:00N 26°08' W 079°58'3 6.5
2017-Apr-19 07:30N 26°09' W 079°54'3 6.9
2017-Apr-19 07:00N 26°10' W 079°51'4 7.3
2017-Apr-19 06:30N 26°11' W 079°47'4 8.1
2017-Apr-19 06:00N 26°13' W 079°43'9 0.6
2017-Apr-18 15:09N 26°16' W 079°34'1 9.6
2017-Apr-18 15:00N 26°15' W 079°35'5 9.7
2017-Apr-18 14:30N 26°13' W 079°40'10 9.7
2017-Apr-18 13:30N 26°10' W 079°50'5 9.7
2017-Apr-18 13:00N 26°09' W 079°55'5 9.5
2017-Apr-18 12:30N 26°07' W 080°00'4 8.8
2017-Apr-18 12:00N 26°06' W 080°05'3 5.9
2017-Apr-18 11:30N 26°04' W 080°07'0 0.7
2017-Apr-18 11:00N 26°04' W 080°08'0 0.0
2017-Apr-18 10:30N 26°04' W 080°08'0 0.0
2017-Apr-18 10:00N 26°04' W 080°08'0 0.0
2017-Apr-18 09:30N 26°04' W 080°08'0 0.0
2017-Apr-18 09:00N 26°04' W 080°08'0 0.0
2017-Apr-18 08:30N 26°04' W 080°08'0 0.0
2017-Apr-18 08:00N 26°04' W 080°08'0 0.0
2017-Apr-18 07:30N 26°04' W 080°08'0 0.0
2017-Apr-18 07:00N 26°04' W 080°08'0 0.0
2017-Apr-18 06:30N 26°04' W 080°08'0 0.0
2017-Apr-18 06:00N 26°04' W 080°08'0 0.0
2017-Apr-18 05:30N 26°04' W 080°08'0 0.0
2017-Apr-18 05:00N 26°04' W 080°08'0 0.0
2017-Apr-18 04:30N 26°04' W 080°08'0 0.0
2017-Apr-18 04:00N 26°04' W 080°08'0 0.0
2017-Apr-18 03:30N 26°04' W 080°08'0 0.5
2017-Apr-18 03:00N 26°04' W 080°08'4 7.5
2017-Apr-18 02:30N 26°06' W 080°04'5 9.2
2017-Apr-18 02:00N 26°09' W 080°00'4 8.4
2017-Apr-18 01:30N 26°12' W 079°57'4 8.4
2017-Apr-18 01:00N 26°15' W 079°54'4 8.3
2017-Apr-18 00:30N 26°18' W 079°50'4 8.2
2017-Apr-18 00:00N 26°20' W 079°47'4 8.2
2017-Apr-17 23:30N 26°23' W 079°43'  
Track history (hours):
 
Tides and Currents Weather Stations Pressure Air Temp Water Temp Dewpoint Dewpoint Depression Visibility Wind Speed Wind Dir Waves Ship Positions

Cape Express

Last reported at 2017-Apr-25 18:24 UTC. Time now 2017-Apr-26 13:44 UTC.
Position N 26°05' W 079°35'.

Length 29 m; draft 2.1 m.

Type: Cargo ship. MMSI: 370269000.

Date/timePositionNaut miles runAvg speedWind from/ knotsBaromVisibWave heightAir tempDewpointWater temp
2017-Apr-25 18:24N 26°05' W 079°35'4 9.8
2017-Apr-25 18:00N 26°05' W 079°39'5 9.7
2017-Apr-25 17:30N 26°05' W 079°45'5 9.6
2017-Apr-25 17:00N 26°05' W 079°50'5 9.3
2017-Apr-25 16:30N 26°05' W 079°55'5 9.3
2017-Apr-25 16:00N 26°05' W 080°00'5 9.6
2017-Apr-25 15:30N 26°06' W 080°06'3 5.7
2017-Apr-25 15:00N 26°04' W 080°08'0 0.2
2017-Apr-25 14:30N 26°04' W 080°08'0 0.0
2017-Apr-25 13:30N 26°04' W 080°08'0 0.0
2017-Apr-25 13:00N 26°04' W 080°08'0 0.0
2017-Apr-25 12:30N 26°04' W 080°08'0 0.0
2017-Apr-25 12:00N 26°04' W 080°08'0 0.0
2017-Apr-25 11:30N 26°04' W 080°08'0 0.0
2017-Apr-25 11:00N 26°04' W 080°08'0 0.0
2017-Apr-25 10:30N 26°04' W 080°08'0 0.0
2017-Apr-25 10:00N 26°04' W 080°08'0 0.1
2017-Apr-25 09:30N 26°04' W 080°08'0 0.0
2017-Apr-25 09:00N 26°04' W 080°08'0 0.0
2017-Apr-25 08:30N 26°04' W 080°08'0 0.0
2017-Apr-25 08:00N 26°04' W 080°08'0 0.0
2017-Apr-25 07:30N 26°04' W 080°08'0 0.0
2017-Apr-25 07:00N 26°04' W 080°08'0 0.0
2017-Apr-25 06:30N 26°04' W 080°08'0 0.0
2017-Apr-25 06:00N 26°04' W 080°08'0 0.0
2017-Apr-25 05:30N 26°04' W 080°08'0 0.1
2017-Apr-25 05:00N 26°04' W 080°08'0 0.1
2017-Apr-25 04:30N 26°04' W 080°08'0 0.0
2017-Apr-25 04:00N 26°04' W 080°08'0 0.0
2017-Apr-25 03:30N 26°04' W 080°08'0 0.0
2017-Apr-25 03:00N 26°04' W 080°08'0 0.0
2017-Apr-25 02:30N 26°04' W 080°08'0 0.0
2017-Apr-25 02:00N 26°04' W 080°08'0 0.0
2017-Apr-25 01:30N 26°04' W 080°08'0 0.0
2017-Apr-25 01:00N 26°04' W 080°08'0 0.0
2017-Apr-25 00:30N 26°04' W 080°08'0 0.0
2017-Apr-25 00:00N 26°04' W 080°08'0 0.0
2017-Apr-24 23:30N 26°04' W 080°08'0 0.0
2017-Apr-24 23:00N 26°04' W 080°08'0 0.0
2017-Apr-24 22:30N 26°04' W 080°08'0 0.0
2017-Apr-24 22:00N 26°04' W 080°08'0 0.0
2017-Apr-24 21:30N 26°04' W 080°08'0 0.0
2017-Apr-24 21:00N 26°04' W 080°08'0 0.0
2017-Apr-24 20:30N 26°04' W 080°08'0 0.0
2017-Apr-24 20:00N 26°04' W 080°08'0 0.0
2017-Apr-24 19:30N 26°04' W 080°08'0 0.0
2017-Apr-24 19:00N 26°04' W 080°08'0 0.0
2017-Apr-24 18:30N 26°04' W 080°08'0 0.0
2017-Apr-24 18:00N 26°04' W 080°08'0 0.0
2017-Apr-24 17:30N 26°04' W 080°08'0 0.0
2017-Apr-24 17:00N 26°04' W 080°08'0 0.0
2017-Apr-24 16:30N 26°04' W 080°08'0 0.0
2017-Apr-24 16:00N 26°04' W 080°08'0 0.0
2017-Apr-24 15:30N 26°04' W 080°08'0 0.0
2017-Apr-24 15:00N 26°04' W 080°08'0 0.0
2017-Apr-24 14:31N 26°04' W 080°08'0 0.0
2017-Apr-24 13:30N 26°04' W 080°08'0 0.0
2017-Apr-24 13:00N 26°04' W 080°08'0 0.0
2017-Apr-24 12:30N 26°04' W 080°08'0 0.0
2017-Apr-24 12:00N 26°04' W 080°08'0 0.0
2017-Apr-24 11:30N 26°04' W 080°08'0 0.0
2017-Apr-24 11:00N 26°04' W 080°08'0 0.0
2017-Apr-24 10:30N 26°04' W 080°08'0 0.0
2017-Apr-24 10:00N 26°04' W 080°08'0 0.0
2017-Apr-24 09:30N 26°04' W 080°08'0 0.0
2017-Apr-24 09:00N 26°04' W 080°08'0 0.0
2017-Apr-24 08:30N 26°04' W 080°08'0 0.0
2017-Apr-24 08:00N 26°04' W 080°08'0 0.0
2017-Apr-24 07:30N 26°04' W 080°08'0 0.0
2017-Apr-24 07:00N 26°04' W 080°08'0 0.0
2017-Apr-24 06:30N 26°04' W 080°08'0 0.0
2017-Apr-24 06:00N 26°04' W 080°08'0 0.0
2017-Apr-24 05:30N 26°04' W 080°08'0 0.0
2017-Apr-24 05:00N 26°04' W 080°08'0 0.0
2017-Apr-23 22:27N 26°04' W 080°08'0 0.0
2017-Apr-23 20:58N 26°04' W 080°08'0 0.0
2017-Apr-23 18:09N 26°04' W 080°08'0 0.0
2017-Apr-23 17:39N 26°04' W 080°08'0 0.0
2017-Apr-23 17:28N 26°04' W 080°08'0 0.0
2017-Apr-23 16:51N 26°04' W 080°08'0 0.0
2017-Apr-23 16:28N 26°04' W 080°08'0 0.0
2017-Apr-23 16:00N 26°04' W 080°08'0 0.0
2017-Apr-23 15:09N 26°04' W 080°08'0 0.0
2017-Apr-23 14:42N 26°04' W 080°08'0 0.4
2017-Apr-23 14:30N 26°04' W 080°08'0 0.0
2017-Apr-23 13:30N 26°04' W 080°08'0 0.0
2017-Apr-23 13:00N 26°04' W 080°08'0 0.0
2017-Apr-23 12:30N 26°04' W 080°08'0 0.0
2017-Apr-23 12:01N 26°04' W 080°08'0 0.0
2017-Apr-23 11:30N 26°04' W 080°08'0 0.0
2017-Apr-23 11:00N 26°04' W 080°08'0 0.1
2017-Apr-23 10:30N 26°04' W 080°08'2 4.5
2017-Apr-23 10:00N 26°06' W 080°07'4 8.8
2017-Apr-23 09:30N 26°04' W 080°02'3 6.8
2017-Apr-23 09:00N 26°04' W 079°58'2 3.0
2017-Apr-23 08:30N 26°05' W 079°57'3 5.8
2017-Apr-23 08:00N 26°03' W 079°55'4 7.2
2017-Apr-23 07:30N 26°02' W 079°51'5 9.9
2017-Apr-23 07:00N 26°00' W 079°46'510.1
2017-Apr-23 06:28N 25°59' W 079°40'  
2017-Apr-19 19:03N 25°58' W 079°34'0 7.4
2017-Apr-19 19:00N 25°58' W 079°34'4 7.1
2017-Apr-19 18:30N 25°59' W 079°38'4 7.3
2017-Apr-19 18:00N 25°60' W 079°42'4 7.2
2017-Apr-19 17:30N 26°01' W 079°45'4 7.1
2017-Apr-19 17:00N 26°02' W 079°49'4 7.0
2017-Apr-19 16:30N 26°02' W 079°53'3 6.9
2017-Apr-19 16:00N 26°03' W 079°57'4 8.2
2017-Apr-19 15:30N 26°05' W 080°01'4 9.0
2017-Apr-19 15:00N 26°06' W 080°06'3 5.2
2017-Apr-19 14:30N 26°04' W 080°08'0 0.1
2017-Apr-19 13:30N 26°04' W 080°08'0 0.0
2017-Apr-19 13:00N 26°04' W 080°08'0 0.0
2017-Apr-19 12:30N 26°04' W 080°08'0 0.0
2017-Apr-19 12:00N 26°04' W 080°08'0 0.0
2017-Apr-19 11:30N 26°04' W 080°08'0 0.0
2017-Apr-19 11:00N 26°04' W 080°08'0 0.0
2017-Apr-19 10:30N 26°04' W 080°08'0 0.0
2017-Apr-19 10:00N 26°04' W 080°08'0 0.1
2017-Apr-19 09:30N 26°04' W 080°08'2 4.4
2017-Apr-19 09:00N 26°06' W 080°07'4 8.9
2017-Apr-19 08:30N 26°06' W 080°02'4 7.6
2017-Apr-19 08:00N 26°08' W 079°58'3 6.5
2017-Apr-19 07:30N 26°09' W 079°54'3 6.9
2017-Apr-19 07:00N 26°10' W 079°51'4 7.3
2017-Apr-19 06:30N 26°11' W 079°47'4 8.1
2017-Apr-19 06:00N 26°13' W 079°43'9 0.6
2017-Apr-18 15:09N 26°16' W 079°34'1 9.6
2017-Apr-18 15:00N 26°15' W 079°35'5 9.7
2017-Apr-18 14:30N 26°13' W 079°40'10 9.7
2017-Apr-18 13:30N 26°10' W 079°50'5 9.7
2017-Apr-18 13:00N 26°09' W 079°55'5 9.5
2017-Apr-18 12:30N 26°07' W 080°00'4 8.8
2017-Apr-18 12:00N 26°06' W 080°05'3 5.9
2017-Apr-18 11:30N 26°04' W 080°07'0 0.7
2017-Apr-18 11:00N 26°04' W 080°08'0 0.0
2017-Apr-18 10:30N 26°04' W 080°08'0 0.0
2017-Apr-18 10:00N 26°04' W 080°08'0 0.0
2017-Apr-18 09:30N 26°04' W 080°08'0 0.0
2017-Apr-18 09:00N 26°04' W 080°08'0 0.0
2017-Apr-18 08:30N 26°04' W 080°08'0 0.0
2017-Apr-18 08:00N 26°04' W 080°08'0 0.0
2017-Apr-18 07:30N 26°04' W 080°08'0 0.0
2017-Apr-18 07:00N 26°04' W 080°08'0 0.0
2017-Apr-18 06:30N 26°04' W 080°08'0 0.0
2017-Apr-18 06:00N 26°04' W 080°08'0 0.0
2017-Apr-18 05:30N 26°04' W 080°08'0 0.0
2017-Apr-18 05:00N 26°04' W 080°08'0 0.0
2017-Apr-18 04:30N 26°04' W 080°08'0 0.0
2017-Apr-18 04:00N 26°04' W 080°08'0 0.0
2017-Apr-18 03:30N 26°04' W 080°08'0 0.5
2017-Apr-18 03:00N 26°04' W 080°08'4 7.5
2017-Apr-18 02:30N 26°06' W 080°04'5 9.2
2017-Apr-18 02:00N 26°09' W 080°00'4 8.4
2017-Apr-18 01:30N 26°12' W 079°57'4 8.4
2017-Apr-18 01:00N 26°15' W 079°54'4 8.3
2017-Apr-18 00:30N 26°18' W 079°50'4 8.2
2017-Apr-18 00:00N 26°20' W 079°47'4 8.2
2017-Apr-17 23:30N 26°23' W 079°43'  

Dump ship's entire track history